sensor_id;sensor_type;location;lat;lon;timestamp;P1;durP1;ratioP1;P2;durP2;ratioP2
79361;SDS011;68830;47.566;19.012;2023-07-24T00:00:57;5.47;;;4.80;;
79361;SDS011;68830;47.566;19.012;2023-07-24T00:04:00;5.43;;;4.70;;
79361;SDS011;68830;47.566;19.012;2023-07-24T00:07:06;7.63;;;5.00;;
79361;SDS011;68830;47.566;19.012;2023-07-24T00:10:09;8.68;;;5.30;;
79361;SDS011;68830;47.566;19.012;2023-07-24T00:13:11;5.15;;;4.65;;
79361;SDS011;68830;47.566;19.012;2023-07-24T00:16:13;6.45;;;4.82;;
79361;SDS011;68830;47.566;19.012;2023-07-24T00:19:15;7.93;;;4.80;;
79361;SDS011;68830;47.566;19.012;2023-07-24T00:22:18;8.93;;;4.82;;
79361;SDS011;68830;47.566;19.012;2023-07-24T00:25:24;5.30;;;4.35;;
79361;SDS011;68830;47.566;19.012;2023-07-24T00:28:27;5.72;;;4.13;;
79361;SDS011;68830;47.566;19.012;2023-07-24T00:31:29;6.93;;;4.93;;
79361;SDS011;68830;47.566;19.012;2023-07-24T00:34:33;6.10;;;4.85;;
79361;SDS011;68830;47.566;19.012;2023-07-24T00:37:37;6.18;;;4.45;;
79361;SDS011;68830;47.566;19.012;2023-07-24T00:40:39;10.80;;;5.32;;
79361;SDS011;68830;47.566;19.012;2023-07-24T00:43:41;9.50;;;5.13;;
79361;SDS011;68830;47.566;19.012;2023-07-24T00:46:43;7.57;;;4.97;;
79361;SDS011;68830;47.566;19.012;2023-07-24T00:49:46;8.30;;;5.25;;
79361;SDS011;68830;47.566;19.012;2023-07-24T00:52:50;6.18;;;4.47;;
79361;SDS011;68830;47.566;19.012;2023-07-24T00:55:52;6.32;;;4.88;;
79361;SDS011;68830;47.566;19.012;2023-07-24T00:58:55;6.95;;;4.75;;
79361;SDS011;68830;47.566;19.012;2023-07-24T01:02:02;5.03;;;4.18;;
79361;SDS011;68830;47.566;19.012;2023-07-24T01:05:04;7.57;;;5.72;;
79361;SDS011;68830;47.566;19.012;2023-07-24T01:08:09;6.90;;;5.10;;
79361;SDS011;68830;47.566;19.012;2023-07-24T01:11:15;6.93;;;5.30;;
79361;SDS011;68830;47.566;19.012;2023-07-24T01:14:21;8.02;;;5.38;;
79361;SDS011;68830;47.566;19.012;2023-07-24T01:17:26;7.28;;;5.78;;
79361;SDS011;68830;47.566;19.012;2023-07-24T01:20:32;7.95;;;5.43;;
79361;SDS011;68830;47.566;19.012;2023-07-24T01:23:50;7.75;;;5.32;;
79361;SDS011;68830;47.566;19.012;2023-07-24T01:27:02;10.35;;;5.68;;
79361;SDS011;68830;47.566;19.012;2023-07-24T01:30:05;6.45;;;4.95;;
79361;SDS011;68830;47.566;19.012;2023-07-24T01:33:08;6.43;;;5.55;;
79361;SDS011;68830;47.566;19.012;2023-07-24T01:36:10;9.18;;;6.10;;
79361;SDS011;68830;47.566;19.012;2023-07-24T01:39:14;7.95;;;5.53;;
79361;SDS011;68830;47.566;19.012;2023-07-24T01:42:18;8.48;;;5.57;;
79361;SDS011;68830;47.566;19.012;2023-07-24T01:45:21;7.60;;;5.53;;
79361;SDS011;68830;47.566;19.012;2023-07-24T01:48:23;7.32;;;5.85;;
79361;SDS011;68830;47.566;19.012;2023-07-24T01:51:25;8.88;;;6.22;;
79361;SDS011;68830;47.566;19.012;2023-07-24T01:54:27;7.55;;;6.43;;
79361;SDS011;68830;47.566;19.012;2023-07-24T01:57:31;5.85;;;5.25;;
79361;SDS011;68830;47.566;19.012;2023-07-24T02:00:33;6.25;;;5.65;;
79361;SDS011;68830;47.566;19.012;2023-07-24T02:03:35;6.60;;;5.55;;
79361;SDS011;68830;47.566;19.012;2023-07-24T02:06:37;9.23;;;6.78;;
79361;SDS011;68830;47.566;19.012;2023-07-24T02:09:39;7.40;;;5.88;;
79361;SDS011;68830;47.566;19.012;2023-07-24T02:12:43;7.47;;;5.97;;
79361;SDS011;68830;47.566;19.012;2023-07-24T02:15:45;6.82;;;6.07;;
79361;SDS011;68830;47.566;19.012;2023-07-24T02:18:47;11.00;;;6.50;;
79361;SDS011;68830;47.566;19.012;2023-07-24T02:21:49;9.02;;;6.65;;
79361;SDS011;68830;47.566;19.012;2023-07-24T02:24:51;10.30;;;6.47;;
79361;SDS011;68830;47.566;19.012;2023-07-24T02:27:55;11.40;;;6.88;;
79361;SDS011;68830;47.566;19.012;2023-07-24T02:30:57;6.93;;;5.53;;
79361;SDS011;68830;47.566;19.012;2023-07-24T02:34:00;9.55;;;6.25;;
79361;SDS011;68830;47.566;19.012;2023-07-24T02:37:02;10.18;;;6.97;;
79361;SDS011;68830;47.566;19.012;2023-07-24T02:40:05;7.82;;;6.38;;
79361;SDS011;68830;47.566;19.012;2023-07-24T02:43:10;7.75;;;6.15;;
79361;SDS011;68830;47.566;19.012;2023-07-24T02:46:12;9.18;;;6.55;;
79361;SDS011;68830;47.566;19.012;2023-07-24T02:49:14;9.20;;;7.03;;
79361;SDS011;68830;47.566;19.012;2023-07-24T02:52:16;9.30;;;6.63;;
79361;SDS011;68830;47.566;19.012;2023-07-24T02:55:18;7.70;;;6.63;;
79361;SDS011;68830;47.566;19.012;2023-07-24T02:58:22;9.90;;;7.45;;
79361;SDS011;68830;47.566;19.012;2023-07-24T03:01:24;9.57;;;6.82;;
79361;SDS011;68830;47.566;19.012;2023-07-24T03:04:28;8.82;;;6.18;;
79361;SDS011;68830;47.566;19.012;2023-07-24T03:07:31;7.80;;;6.40;;
79361;SDS011;68830;47.566;19.012;2023-07-24T03:10:33;10.38;;;6.88;;
79361;SDS011;68830;47.566;19.012;2023-07-24T03:13:36;9.52;;;6.88;;
79361;SDS011;68830;47.566;19.012;2023-07-24T03:16:42;8.50;;;6.13;;
79361;SDS011;68830;47.566;19.012;2023-07-24T03:19:44;11.98;;;6.53;;
79361;SDS011;68830;47.566;19.012;2023-07-24T03:22:46;8.73;;;7.03;;
79361;SDS011;68830;47.566;19.012;2023-07-24T03:25:48;8.18;;;6.25;;
79361;SDS011;68830;47.566;19.012;2023-07-24T03:28:52;10.85;;;7.30;;
79361;SDS011;68830;47.566;19.012;2023-07-24T03:31:54;8.20;;;7.00;;
79361;SDS011;68830;47.566;19.012;2023-07-24T03:34:56;10.88;;;7.38;;
79361;SDS011;68830;47.566;19.012;2023-07-24T03:37:58;9.27;;;7.28;;
79361;SDS011;68830;47.566;19.012;2023-07-24T03:41:00;9.98;;;7.30;;
79361;SDS011;68830;47.566;19.012;2023-07-24T03:44:04;10.45;;;8.07;;
79361;SDS011;68830;47.566;19.012;2023-07-24T03:47:06;7.75;;;6.65;;
79361;SDS011;68830;47.566;19.012;2023-07-24T03:50:10;10.15;;;7.78;;
79361;SDS011;68830;47.566;19.012;2023-07-24T03:53:12;8.25;;;7.30;;
79361;SDS011;68830;47.566;19.012;2023-07-24T03:56:14;10.05;;;7.47;;
79361;SDS011;68830;47.566;19.012;2023-07-24T03:59:18;8.63;;;7.38;;
79361;SDS011;68830;47.566;19.012;2023-07-24T04:02:20;9.18;;;7.30;;
79361;SDS011;68830;47.566;19.012;2023-07-24T04:05:22;11.75;;;7.88;;
79361;SDS011;68830;47.566;19.012;2023-07-24T04:08:24;11.27;;;8.88;;
79361;SDS011;68830;47.566;19.012;2023-07-24T04:11:26;9.00;;;7.63;;
79361;SDS011;68830;47.566;19.012;2023-07-24T04:14:30;10.43;;;7.60;;
79361;SDS011;68830;47.566;19.012;2023-07-24T04:17:32;9.73;;;7.90;;
79361;SDS011;68830;47.566;19.012;2023-07-24T04:20:34;10.65;;;7.93;;
79361;SDS011;68830;47.566;19.012;2023-07-24T04:23:36;8.27;;;6.80;;
79361;SDS011;68830;47.566;19.012;2023-07-24T04:26:38;11.52;;;8.70;;
79361;SDS011;68830;47.566;19.012;2023-07-24T04:29:42;11.43;;;7.90;;
79361;SDS011;68830;47.566;19.012;2023-07-24T04:32:44;9.20;;;7.63;;
79361;SDS011;68830;47.566;19.012;2023-07-24T04:35:47;11.57;;;8.80;;
79361;SDS011;68830;47.566;19.012;2023-07-24T04:38:50;10.85;;;8.30;;
79361;SDS011;68830;47.566;19.012;2023-07-24T04:41:52;13.93;;;9.13;;
79361;SDS011;68830;47.566;19.012;2023-07-24T04:44:56;9.98;;;8.57;;
79361;SDS011;68830;47.566;19.012;2023-07-24T04:47:58;11.25;;;8.23;;
79361;SDS011;68830;47.566;19.012;2023-07-24T04:51:00;9.77;;;8.73;;
79361;SDS011;68830;47.566;19.012;2023-07-24T04:54:02;9.90;;;8.77;;
79361;SDS011;68830;47.566;19.012;2023-07-24T04:57:04;12.50;;;9.20;;
79361;SDS011;68830;47.566;19.012;2023-07-24T05:00:09;12.13;;;8.30;;
79361;SDS011;68830;47.566;19.012;2023-07-24T05:03:12;11.73;;;9.57;;
79361;SDS011;68830;47.566;19.012;2023-07-24T05:06:14;11.07;;;8.43;;
79361;SDS011;68830;47.566;19.012;2023-07-24T05:09:16;11.98;;;8.88;;
79361;SDS011;68830;47.566;19.012;2023-07-24T05:12:18;11.50;;;9.38;;
79361;SDS011;68830;47.566;19.012;2023-07-24T05:15:22;12.88;;;8.98;;
79361;SDS011;68830;47.566;19.012;2023-07-24T05:18:24;11.75;;;9.27;;
79361;SDS011;68830;47.566;19.012;2023-07-24T05:21:26;11.90;;;10.10;;
79361;SDS011;68830;47.566;19.012;2023-07-24T05:24:28;10.60;;;9.20;;
79361;SDS011;68830;47.566;19.012;2023-07-24T05:27:30;10.65;;;8.65;;
79361;SDS011;68830;47.566;19.012;2023-07-24T05:30:34;13.18;;;8.07;;
79361;SDS011;68830;47.566;19.012;2023-07-24T05:33:36;14.13;;;8.52;;
79361;SDS011;68830;47.566;19.012;2023-07-24T05:36:40;11.70;;;8.32;;
79361;SDS011;68830;47.566;19.012;2023-07-24T05:39:43;12.40;;;9.45;;
79361;SDS011;68830;47.566;19.012;2023-07-24T05:42:45;12.43;;;10.18;;
79361;SDS011;68830;47.566;19.012;2023-07-24T05:45:50;11.85;;;8.60;;
79361;SDS011;68830;47.566;19.012;2023-07-24T05:48:52;10.10;;;8.80;;
79361;SDS011;68830;47.566;19.012;2023-07-24T05:51:54;11.13;;;9.07;;
79361;SDS011;68830;47.566;19.012;2023-07-24T05:55:00;11.85;;;8.25;;
79361;SDS011;68830;47.566;19.012;2023-07-24T05:58:02;10.27;;;9.13;;
79361;SDS011;68830;47.566;19.012;2023-07-24T06:01:06;11.85;;;8.63;;
79361;SDS011;68830;47.566;19.012;2023-07-24T06:04:11;11.95;;;10.75;;
79361;SDS011;68830;47.566;19.012;2023-07-24T06:07:14;13.73;;;12.18;;
79361;SDS011;68830;47.566;19.012;2023-07-24T06:10:16;14.15;;;12.68;;
79361;SDS011;68830;47.566;19.012;2023-07-24T06:13:19;13.48;;;12.18;;
79361;SDS011;68830;47.566;19.012;2023-07-24T06:16:23;12.80;;;11.50;;
79361;SDS011;68830;47.566;19.012;2023-07-24T06:19:27;12.27;;;11.18;;
79361;SDS011;68830;47.566;19.012;2023-07-24T06:22:32;11.90;;;10.80;;
79361;SDS011;68830;47.566;19.012;2023-07-24T06:25:36;13.02;;;11.82;;
79361;SDS011;68830;47.566;19.012;2023-07-24T06:28:39;12.25;;;11.00;;
79361;SDS011;68830;47.566;19.012;2023-07-24T06:31:54;11.63;;;9.68;;
79361;SDS011;68830;47.566;19.012;2023-07-24T06:34:56;14.18;;;10.02;;
79361;SDS011;68830;47.566;19.012;2023-07-24T06:37:59;11.88;;;9.00;;
79361;SDS011;68830;47.566;19.012;2023-07-24T06:41:04;12.05;;;9.02;;
79361;SDS011;68830;47.566;19.012;2023-07-24T06:44:06;9.95;;;8.45;;
79361;SDS011;68830;47.566;19.012;2023-07-24T06:47:12;11.25;;;8.57;;
79361;SDS011;68830;47.566;19.012;2023-07-24T06:50:34;15.02;;;12.48;;
79361;SDS011;68830;47.566;19.012;2023-07-24T06:54:32;17.08;;;9.68;;
79361;SDS011;68830;47.566;19.012;2023-07-24T06:57:46;12.65;;;9.00;;
79361;SDS011;68830;47.566;19.012;2023-07-24T07:01:05;9.73;;;8.70;;
79361;SDS011;68830;47.566;19.012;2023-07-24T07:04:13;12.80;;;11.38;;
79361;SDS011;68830;47.566;19.012;2023-07-24T07:07:15;14.80;;;12.30;;
79361;SDS011;68830;47.566;19.012;2023-07-24T07:10:23;15.13;;;11.35;;
79361;SDS011;68830;47.566;19.012;2023-07-24T07:13:27;12.65;;;11.30;;
79361;SDS011;68830;47.566;19.012;2023-07-24T07:16:29;15.55;;;11.38;;
79361;SDS011;68830;47.566;19.012;2023-07-24T07:19:37;13.38;;;11.70;;
79361;SDS011;68830;47.566;19.012;2023-07-24T07:22:39;16.00;;;11.00;;
79361;SDS011;68830;47.566;19.012;2023-07-24T07:25:43;12.95;;;10.88;;
79361;SDS011;68830;47.566;19.012;2023-07-24T07:28:46;15.40;;;11.20;;
79361;SDS011;68830;47.566;19.012;2023-07-24T07:31:48;12.40;;;11.20;;
79361;SDS011;68830;47.566;19.012;2023-07-24T07:34:52;14.40;;;11.82;;
79361;SDS011;68830;47.566;19.012;2023-07-24T07:37:54;13.18;;;11.55;;
79361;SDS011;68830;47.566;19.012;2023-07-24T07:40:56;15.75;;;10.70;;
79361;SDS011;68830;47.566;19.012;2023-07-24T07:43:58;13.10;;;11.88;;
79361;SDS011;68830;47.566;19.012;2023-07-24T07:47:00;12.45;;;11.10;;
79361;SDS011;68830;47.566;19.012;2023-07-24T07:50:04;13.07;;;11.45;;
79361;SDS011;68830;47.566;19.012;2023-07-24T07:53:07;15.65;;;9.88;;
79361;SDS011;68830;47.566;19.012;2023-07-24T07:56:09;12.02;;;10.82;;
79361;SDS011;68830;47.566;19.012;2023-07-24T07:59:11;13.20;;;9.90;;
79361;SDS011;68830;47.566;19.012;2023-07-24T08:02:13;12.68;;;11.38;;
79361;SDS011;68830;47.566;19.012;2023-07-24T08:05:16;13.23;;;11.85;;
79361;SDS011;68830;47.566;19.012;2023-07-24T08:08:22;11.77;;;10.50;;
79361;SDS011;68830;47.566;19.012;2023-07-24T08:11:24;11.95;;;10.30;;
79361;SDS011;68830;47.566;19.012;2023-07-24T08:14:26;10.38;;;9.35;;
79361;SDS011;68830;47.566;19.012;2023-07-24T08:17:28;11.88;;;9.63;;
79361;SDS011;68830;47.566;19.012;2023-07-24T08:20:34;12.27;;;10.27;;
79361;SDS011;68830;47.566;19.012;2023-07-24T08:23:37;10.68;;;9.57;;
79361;SDS011;68830;47.566;19.012;2023-07-24T08:26:39;10.90;;;9.30;;
79361;SDS011;68830;47.566;19.012;2023-07-24T08:29:41;13.05;;;9.13;;
79361;SDS011;68830;47.566;19.012;2023-07-24T08:32:43;12.80;;;9.77;;
79361;SDS011;68830;47.566;19.012;2023-07-24T08:35:47;13.05;;;9.90;;
79361;SDS011;68830;47.566;19.012;2023-07-24T08:38:49;13.68;;;10.50;;
79361;SDS011;68830;47.566;19.012;2023-07-24T08:41:51;11.90;;;9.68;;
79361;SDS011;68830;47.566;19.012;2023-07-24T08:44:53;15.00;;;10.02;;
79361;SDS011;68830;47.566;19.012;2023-07-24T08:47:57;14.75;;;10.13;;
79361;SDS011;68830;47.566;19.012;2023-07-24T08:51:02;13.07;;;9.18;;
79361;SDS011;68830;47.566;19.012;2023-07-24T08:54:05;13.32;;;9.40;;
79361;SDS011;68830;47.566;19.012;2023-07-24T08:57:07;12.82;;;10.68;;
79361;SDS011;68830;47.566;19.012;2023-07-24T09:00:11;15.00;;;8.95;;
79361;SDS011;68830;47.566;19.012;2023-07-24T09:03:13;10.88;;;9.45;;
79361;SDS011;68830;47.566;19.012;2023-07-24T09:06:17;11.52;;;9.48;;
79361;SDS011;68830;47.566;19.012;2023-07-24T09:09:19;11.23;;;9.18;;
79361;SDS011;68830;47.566;19.012;2023-07-24T09:12:21;11.57;;;10.02;;
79361;SDS011;68830;47.566;19.012;2023-07-24T09:15:24;12.00;;;9.48;;
79361;SDS011;68830;47.566;19.012;2023-07-24T09:18:27;11.32;;;9.00;;
79361;SDS011;68830;47.566;19.012;2023-07-24T09:21:41;12.45;;;10.55;;
79361;SDS011;68830;47.566;19.012;2023-07-24T09:24:50;11.55;;;10.35;;
79361;SDS011;68830;47.566;19.012;2023-07-24T09:27:53;12.05;;;10.02;;
79361;SDS011;68830;47.566;19.012;2023-07-24T09:30:56;12.13;;;10.02;;
79361;SDS011;68830;47.566;19.012;2023-07-24T09:33:59;15.02;;;9.93;;
79361;SDS011;68830;47.566;19.012;2023-07-24T09:37:02;12.32;;;9.40;;
79361;SDS011;68830;47.566;19.012;2023-07-24T09:40:09;11.68;;;10.43;;
79361;SDS011;68830;47.566;19.012;2023-07-24T09:43:15;13.55;;;10.07;;
79361;SDS011;68830;47.566;19.012;2023-07-24T09:46:39;13.02;;;10.75;;
79361;SDS011;68830;47.566;19.012;2023-07-24T09:49:44;13.40;;;10.88;;
79361;SDS011;68830;47.566;19.012;2023-07-24T09:52:48;15.00;;;10.45;;
79361;SDS011;68830;47.566;19.012;2023-07-24T09:55:53;13.20;;;10.13;;
79361;SDS011;68830;47.566;19.012;2023-07-24T09:58:58;16.27;;;11.15;;
79361;SDS011;68830;47.566;19.012;2023-07-24T10:02:01;14.90;;;10.43;;
79361;SDS011;68830;47.566;19.012;2023-07-24T10:05:05;15.73;;;11.57;;
79361;SDS011;68830;47.566;19.012;2023-07-24T10:08:10;16.45;;;11.40;;
79361;SDS011;68830;47.566;19.012;2023-07-24T10:11:13;14.57;;;12.00;;
79361;SDS011;68830;47.566;19.012;2023-07-24T10:14:15;11.95;;;10.48;;
79361;SDS011;68830;47.566;19.012;2023-07-24T10:17:33;17.10;;;11.32;;
79361;SDS011;68830;47.566;19.012;2023-07-24T10:20:37;14.50;;;11.80;;
79361;SDS011;68830;47.566;19.012;2023-07-24T10:26:45;12.75;;;11.25;;
79361;SDS011;68830;47.566;19.012;2023-07-24T10:29:57;13.60;;;10.25;;
79361;SDS011;68830;47.566;19.012;2023-07-24T10:33:03;14.32;;;11.02;;
79361;SDS011;68830;47.566;19.012;2023-07-24T10:36:07;13.50;;;10.45;;
79361;SDS011;68830;47.566;19.012;2023-07-24T10:39:16;13.68;;;11.52;;
79361;SDS011;68830;47.566;19.012;2023-07-24T10:42:22;13.70;;;11.00;;
79361;SDS011;68830;47.566;19.012;2023-07-24T10:45:24;15.23;;;11.27;;
79361;SDS011;68830;47.566;19.012;2023-07-24T10:48:27;17.75;;;12.20;;
79361;SDS011;68830;47.566;19.012;2023-07-24T10:51:29;12.38;;;10.10;;
79361;SDS011;68830;47.566;19.012;2023-07-24T10:54:36;15.68;;;11.13;;
79361;SDS011;68830;47.566;19.012;2023-07-24T11:00:42;14.13;;;10.98;;
79361;SDS011;68830;47.566;19.012;2023-07-24T11:03:44;14.27;;;11.10;;
79361;SDS011;68830;47.566;19.012;2023-07-24T11:06:51;13.23;;;10.63;;
79361;SDS011;68830;47.566;19.012;2023-07-24T11:09:55;12.70;;;10.52;;
79361;SDS011;68830;47.566;19.012;2023-07-24T11:12:57;15.98;;;11.57;;
79361;SDS011;68830;47.566;19.012;2023-07-24T11:16:03;15.85;;;11.82;;
79361;SDS011;68830;47.566;19.012;2023-07-24T11:19:06;13.05;;;9.85;;
79361;SDS011;68830;47.566;19.012;2023-07-24T11:22:08;16.05;;;11.30;;
79361;SDS011;68830;47.566;19.012;2023-07-24T11:25:12;16.85;;;11.48;;
79361;SDS011;68830;47.566;19.012;2023-07-24T11:28:14;12.18;;;10.50;;
79361;SDS011;68830;47.566;19.012;2023-07-24T11:31:16;13.27;;;10.02;;
79361;SDS011;68830;47.566;19.012;2023-07-24T11:34:23;12.48;;;9.77;;
79361;SDS011;68830;47.566;19.012;2023-07-24T11:37:26;14.43;;;10.00;;
79361;SDS011;68830;47.566;19.012;2023-07-24T11:40:36;12.73;;;10.73;;
79361;SDS011;68830;47.566;19.012;2023-07-24T11:43:45;16.95;;;10.15;;
79361;SDS011;68830;47.566;19.012;2023-07-24T11:46:48;12.40;;;10.30;;
79361;SDS011;68830;47.566;19.012;2023-07-24T11:49:57;12.43;;;9.25;;
79361;SDS011;68830;47.566;19.012;2023-07-24T11:53:00;15.45;;;9.80;;
79361;SDS011;68830;47.566;19.012;2023-07-24T11:56:12;13.07;;;10.25;;
79361;SDS011;68830;47.566;19.012;2023-07-24T11:59:15;12.15;;;10.20;;
79361;SDS011;68830;47.566;19.012;2023-07-24T12:02:17;15.85;;;10.63;;
79361;SDS011;68830;47.566;19.012;2023-07-24T12:05:20;12.32;;;9.70;;
79361;SDS011;68830;47.566;19.012;2023-07-24T12:08:29;11.82;;;10.55;;
79361;SDS011;68830;47.566;19.012;2023-07-24T12:11:34;14.88;;;10.02;;
79361;SDS011;68830;47.566;19.012;2023-07-24T12:14:41;11.52;;;9.85;;
79361;SDS011;68830;47.566;19.012;2023-07-24T12:17:43;12.93;;;10.30;;
79361;SDS011;68830;47.566;19.012;2023-07-24T12:20:45;11.35;;;9.77;;
79361;SDS011;68830;47.566;19.012;2023-07-24T12:23:50;12.05;;;9.23;;
79361;SDS011;68830;47.566;19.012;2023-07-24T12:26:53;17.63;;;9.48;;
79361;SDS011;68830;47.566;19.012;2023-07-24T12:29:56;11.48;;;9.57;;
79361;SDS011;68830;47.566;19.012;2023-07-24T12:32:58;14.57;;;9.43;;
79361;SDS011;68830;47.566;19.012;2023-07-24T12:36:00;11.88;;;9.65;;
79361;SDS011;68830;47.566;19.012;2023-07-24T12:39:03;11.07;;;9.45;;
79361;SDS011;68830;47.566;19.012;2023-07-24T12:42:06;13.25;;;8.98;;
79361;SDS011;68830;47.566;19.012;2023-07-24T12:45:08;11.70;;;9.75;;
79361;SDS011;68830;47.566;19.012;2023-07-24T12:48:11;9.93;;;8.95;;
79361;SDS011;68830;47.566;19.012;2023-07-24T12:51:13;10.10;;;9.02;;
79361;SDS011;68830;47.566;19.012;2023-07-24T12:54:15;17.52;;;10.15;;
79361;SDS011;68830;47.566;19.012;2023-07-24T12:57:31;12.77;;;9.52;;
79361;SDS011;68830;47.566;19.012;2023-07-24T13:00:33;14.68;;;9.40;;
79361;SDS011;68830;47.566;19.012;2023-07-24T13:03:35;17.85;;;8.93;;
79361;SDS011;68830;47.566;19.012;2023-07-24T13:06:37;18.48;;;9.32;;
79361;SDS011;68830;47.566;19.012;2023-07-24T13:09:40;15.05;;;9.13;;
79361;SDS011;68830;47.566;19.012;2023-07-24T13:12:43;9.88;;;8.88;;
79361;SDS011;68830;47.566;19.012;2023-07-24T13:15:46;10.65;;;8.45;;
79361;SDS011;68830;47.566;19.012;2023-07-24T13:18:48;9.85;;;8.30;;
79361;SDS011;68830;47.566;19.012;2023-07-24T13:21:50;17.60;;;10.02;;
79361;SDS011;68830;47.566;19.012;2023-07-24T13:24:52;11.32;;;9.60;;
79361;SDS011;68830;47.566;19.012;2023-07-24T13:27:55;13.52;;;9.88;;
79361;SDS011;68830;47.566;19.012;2023-07-24T13:30:57;12.60;;;10.07;;
79361;SDS011;68830;47.566;19.012;2023-07-24T13:33:59;16.27;;;9.98;;
79361;SDS011;68830;47.566;19.012;2023-07-24T13:37:02;11.65;;;9.77;;
79361;SDS011;68830;47.566;19.012;2023-07-24T13:40:05;12.32;;;9.23;;
79361;SDS011;68830;47.566;19.012;2023-07-24T13:43:09;11.85;;;10.43;;
79361;SDS011;68830;47.566;19.012;2023-07-24T13:46:11;13.32;;;9.95;;
79361;SDS011;68830;47.566;19.012;2023-07-24T13:49:13;13.27;;;10.77;;
79361;SDS011;68830;47.566;19.012;2023-07-24T13:52:15;15.00;;;11.27;;
79361;SDS011;68830;47.566;19.012;2023-07-24T13:55:18;21.08;;;11.15;;
79361;SDS011;68830;47.566;19.012;2023-07-24T13:58:21;16.50;;;11.80;;
79361;SDS011;68830;47.566;19.012;2023-07-24T14:01:23;21.60;;;14.65;;
79361;SDS011;68830;47.566;19.012;2023-07-24T14:04:26;14.80;;;12.85;;
79361;SDS011;68830;47.566;19.012;2023-07-24T14:07:28;17.20;;;12.75;;
79361;SDS011;68830;47.566;19.012;2023-07-24T14:10:30;18.38;;;12.85;;
79361;SDS011;68830;47.566;19.012;2023-07-24T14:13:34;15.70;;;13.13;;
79361;SDS011;68830;47.566;19.012;2023-07-24T14:16:35;18.90;;;13.68;;
79361;SDS011;68830;47.566;19.012;2023-07-24T14:19:40;18.20;;;13.25;;
79361;SDS011;68830;47.566;19.012;2023-07-24T14:22:43;14.68;;;12.77;;
79361;SDS011;68830;47.566;19.012;2023-07-24T14:25:46;16.30;;;13.13;;
79361;SDS011;68830;47.566;19.012;2023-07-24T14:28:49;15.93;;;12.82;;
79361;SDS011;68830;47.566;19.012;2023-07-24T14:31:53;16.92;;;13.80;;
79361;SDS011;68830;47.566;19.012;2023-07-24T14:34:55;14.93;;;11.60;;
79361;SDS011;68830;47.566;19.012;2023-07-24T14:37:57;16.92;;;13.02;;
79361;SDS011;68830;47.566;19.012;2023-07-24T14:40:59;16.25;;;12.60;;
79361;SDS011;68830;47.566;19.012;2023-07-24T14:44:03;15.23;;;12.25;;
79361;SDS011;68830;47.566;19.012;2023-07-24T14:47:06;15.50;;;12.15;;
79361;SDS011;68830;47.566;19.012;2023-07-24T14:50:10;15.10;;;12.43;;
79361;SDS011;68830;47.566;19.012;2023-07-24T14:53:13;15.75;;;12.57;;
79361;SDS011;68830;47.566;19.012;2023-07-24T14:56:16;17.33;;;13.15;;
79361;SDS011;68830;47.566;19.012;2023-07-24T14:59:20;15.40;;;12.32;;
79361;SDS011;68830;47.566;19.012;2023-07-24T15:02:22;19.77;;;13.25;;
79361;SDS011;68830;47.566;19.012;2023-07-24T15:05:24;15.38;;;12.27;;
79361;SDS011;68830;47.566;19.012;2023-07-24T15:08:26;18.65;;;13.27;;
79361;SDS011;68830;47.566;19.012;2023-07-24T15:11:28;16.00;;;12.77;;
79361;SDS011;68830;47.566;19.012;2023-07-24T15:14:33;15.20;;;12.25;;
79361;SDS011;68830;47.566;19.012;2023-07-24T15:17:36;17.27;;;13.75;;
79361;SDS011;68830;47.566;19.012;2023-07-24T15:20:38;18.65;;;12.07;;
79361;SDS011;68830;47.566;19.012;2023-07-24T15:23:40;16.35;;;13.30;;
79361;SDS011;68830;47.566;19.012;2023-07-24T15:26:44;16.25;;;12.20;;
79361;SDS011;68830;47.566;19.012;2023-07-24T15:29:48;17.10;;;11.70;;
79361;SDS011;68830;47.566;19.012;2023-07-24T15:32:51;16.75;;;12.45;;
79361;SDS011;68830;47.566;19.012;2023-07-24T15:35:54;15.93;;;12.13;;
79361;SDS011;68830;47.566;19.012;2023-07-24T15:38:56;13.70;;;11.18;;
79361;SDS011;68830;47.566;19.012;2023-07-24T15:41:58;15.70;;;12.57;;
79361;SDS011;68830;47.566;19.012;2023-07-24T15:45:02;15.40;;;11.85;;
79361;SDS011;68830;47.566;19.012;2023-07-24T15:48:05;15.07;;;11.70;;
79361;SDS011;68830;47.566;19.012;2023-07-24T15:51:07;16.73;;;12.25;;
79361;SDS011;68830;47.566;19.012;2023-07-24T15:54:09;14.63;;;12.20;;
79361;SDS011;68830;47.566;19.012;2023-07-24T15:57:12;15.95;;;12.40;;
79361;SDS011;68830;47.566;19.012;2023-07-24T16:00:15;15.90;;;12.68;;
79361;SDS011;68830;47.566;19.012;2023-07-24T16:03:18;17.30;;;12.57;;
79361;SDS011;68830;47.566;19.012;2023-07-24T16:06:20;16.88;;;13.18;;
79361;SDS011;68830;47.566;19.012;2023-07-24T16:09:23;14.75;;;11.65;;
79361;SDS011;68830;47.566;19.012;2023-07-24T16:12:25;13.93;;;11.65;;
79361;SDS011;68830;47.566;19.012;2023-07-24T16:15:28;15.90;;;11.98;;
79361;SDS011;68830;47.566;19.012;2023-07-24T16:18:33;27.92;;;13.10;;
79361;SDS011;68830;47.566;19.012;2023-07-24T16:21:36;19.10;;;13.00;;
79361;SDS011;68830;47.566;19.012;2023-07-24T16:24:38;15.35;;;11.77;;
79361;SDS011;68830;47.566;19.012;2023-07-24T16:27:41;14.85;;;11.80;;
79361;SDS011;68830;47.566;19.012;2023-07-24T16:30:44;17.55;;;12.40;;
79361;SDS011;68830;47.566;19.012;2023-07-24T16:33:46;17.88;;;13.20;;
79361;SDS011;68830;47.566;19.012;2023-07-24T16:36:50;16.75;;;12.20;;
79361;SDS011;68830;47.566;19.012;2023-07-24T16:39:52;17.50;;;13.18;;
79361;SDS011;68830;47.566;19.012;2023-07-24T16:42:54;16.80;;;12.02;;
79361;SDS011;68830;47.566;19.012;2023-07-24T16:46:00;16.02;;;11.50;;
79361;SDS011;68830;47.566;19.012;2023-07-24T16:49:22;17.58;;;11.90;;
79361;SDS011;68830;47.566;19.012;2023-07-24T16:52:25;16.10;;;11.38;;
79361;SDS011;68830;47.566;19.012;2023-07-24T16:55:27;15.55;;;11.02;;
79361;SDS011;68830;47.566;19.012;2023-07-24T16:58:30;19.02;;;11.38;;
79361;SDS011;68830;47.566;19.012;2023-07-24T17:01:34;17.70;;;11.88;;
79361;SDS011;68830;47.566;19.012;2023-07-24T17:04:37;20.67;;;12.63;;
79361;SDS011;68830;47.566;19.012;2023-07-24T17:07:40;16.83;;;11.88;;
79361;SDS011;68830;47.566;19.012;2023-07-24T17:10:44;16.92;;;11.50;;
79361;SDS011;68830;47.566;19.012;2023-07-24T17:13:52;19.17;;;12.23;;
79361;SDS011;68830;47.566;19.012;2023-07-24T17:16:56;19.77;;;12.90;;
79361;SDS011;68830;47.566;19.012;2023-07-24T17:20:01;18.25;;;12.05;;
79361;SDS011;68830;47.566;19.012;2023-07-24T17:23:04;15.45;;;11.95;;
79361;SDS011;68830;47.566;19.012;2023-07-24T17:26:06;15.40;;;11.63;;
79361;SDS011;68830;47.566;19.012;2023-07-24T17:29:09;16.50;;;11.77;;
79361;SDS011;68830;47.566;19.012;2023-07-24T17:32:13;18.05;;;11.73;;
79361;SDS011;68830;47.566;19.012;2023-07-24T17:35:16;15.38;;;11.57;;
79361;SDS011;68830;47.566;19.012;2023-07-24T17:38:19;15.43;;;10.95;;
79361;SDS011;68830;47.566;19.012;2023-07-24T17:41:22;14.82;;;10.98;;
79361;SDS011;68830;47.566;19.012;2023-07-24T17:44:24;15.25;;;11.13;;
79361;SDS011;68830;47.566;19.012;2023-07-24T17:47:28;15.38;;;11.35;;
79361;SDS011;68830;47.566;19.012;2023-07-24T17:50:30;14.85;;;11.75;;
79361;SDS011;68830;47.566;19.012;2023-07-24T17:53:35;16.73;;;11.43;;
79361;SDS011;68830;47.566;19.012;2023-07-24T17:56:39;13.23;;;10.65;;